Latest Weather Observations for Cloncurry

IDQ60801

Issued at 6:35 pm EST Saturday 2 August 2014 (issued every 30 minutes, with the page automatically refreshed every 10 minutes)

About weather observations | Map of weather stations | Latest weather observations for QLD | Other Formats
Station Details ID: 029141 Name: CLONCURRY AIRPORT Lat: -20.67 Lon: 140.50 Height: 186.0 m
Data from the previous 72 hours. | See also: Recent months at Cloncurry
Date/Time
EST
Temp
°C
App
Temp
°C
Dew
Point
Rel
Hum
%
Delta-T
°C
Wind Press
QNH
hPa
Press
MSL
hPa
Rain
since 9 am
mm
Dir
 
Spd
km/h
Gust
km/h
Spd
kts
Gust
kts
02/06:30pm 21.2 16.4 -6.4 15 10.9 SE 11 17 6 9 1020.2 - 0.0
02/06:00pm 21.5 16.3 -6.2 15 11.0 SSE 13 19 7 10 1020.2 1019.6 0.0
02/05:30pm 22.0 16.1 -5.8 15 11.3 SSE 17 24 9 13 1020.0 - 0.0
02/05:00pm 22.2 16.3 -5.6 15 11.3 SSE 17 24 9 13 1019.7 1019.1 0.0
02/04:30pm 22.5 16.5 -6.3 14 11.6 SSE 17 24 9 13 1019.6 - 0.0
02/04:00pm 23.0 17.2 -5.0 15 11.6 SSE 17 22 9 12 1019.6 1019.0 0.0
02/03:30pm 22.4 16.9 -5.5 15 11.4 SSE 15 26 8 14 1019.9 - 0.0
02/03:00pm 22.6 17.2 -4.5 16 11.3 SSE 15 22 8 12 1020.2 1019.6 0.0
02/02:30pm 21.9 16.5 -4.2 17 10.9 SSE 15 26 8 14 1020.5 - 0.0
02/02:00pm 20.9 14.7 -5.0 17 10.5 ESE 19 28 10 15 1020.9 1020.3 0.0
02/01:30pm 20.9 14.7 -5.0 17 10.5 SE 19 26 10 14 1021.4 - 0.0
02/01:00pm 20.1 13.4 -4.2 19 9.9 ESE 22 28 12 15 1022.1 1021.5 0.0
02/12:30pm 19.8 12.8 -3.1 21 9.6 SSE 24 33 13 18 1022.6 - 0.0
02/12:00pm 19.3 12.3 -3.5 21 9.4 ESE 24 33 13 18 1023.2 1022.7 0.0
02/11:30am 17.9 10.5 -3.5 23 8.7 ESE 26 35 14 19 1023.8 - 0.0
02/11:00am 17.9 10.9 -3.5 23 8.7 SE 24 32 13 17 1024.1 1023.6 0.0
02/10:30am 17.6 10.3 -3.2 24 8.5 SE 26 33 14 18 1024.2 - 0.0
02/10:00am 16.2 8.0 -4.4 24 8.0 SE 30 37 16 20 1024.1 1023.6 0.0
02/09:30am 15.8 7.2 -4.2 25 7.9 SE 32 39 17 21 1024.0 - 0.0
02/09:00am 15.5 6.9 -4.4 25 7.7 SE 32 43 17 23 1023.7 1023.2 0.0
02/08:30am 15.1 6.9 -4.2 26 7.5 SSE 30 39 16 21 1023.6 - 0.0
02/08:21am 14.9 7.1 -3.9 27 7.4 SSE 28 35 15 19 1023.4 - 0.0
02/08:00am 13.4 9.3 -2.9 32 6.4 S 9 15 5 8 1023.0 1022.5 0.0
02/07:30am 12.2 7.3 -3.2 34 5.9 S 13 19 7 10 1022.5 - 0.0
02/07:00am 12.4 7.2 -3.0 34 6.0 S 15 19 8 10 1022.1 1021.5 0.0
02/06:30am 12.9 7.7 -2.6 34 6.1 SSE 15 20 8 11 1021.8 - 0.0
02/06:00am 13.1 7.6 -2.4 34 6.1 S 17 20 9 11 1021.6 1021.0 0.0
02/05:30am 13.4 7.5 -2.5 33 6.3 S 19 24 10 13 1021.5 - 0.0
02/05:00am 14.0 7.9 -2.4 32 6.5 S 20 26 11 14 1021.2 1020.6 0.0
02/04:30am 14.1 7.6 -2.8 31 6.7 S 22 32 12 17 1021.0 - 0.0
02/04:00am 14.5 7.2 -2.8 30 6.9 S 26 33 14 18 1021.0 1020.4 0.0
02/03:30am 14.8 7.5 -3.0 29 7.1 S 26 35 14 19 1021.1 - 0.0
02/03:00am 15.1 8.2 -2.3 30 7.0 S 24 33 13 18 1021.2 1020.6 0.0
02/02:30am 15.5 8.0 -1.5 31 7.1 S 28 35 15 19 1021.3 - 0.0
02/02:00am 15.8 8.8 -0.8 32 7.0 S 26 35 14 19 1021.4 1020.8 0.0
02/01:30am 16.3 9.3 -0.4 32 7.1 S 26 39 14 21 1021.6 - 0.0
02/01:00am 16.8 9.5 0.0 32 7.3 S 28 35 15 19 1021.6 1021.0 0.0
02/12:30am 17.5 10.7 0.6 32 7.5 S 26 35 14 19 1021.4 - 0.0
02/12:00am 18.2 10.3 0.8 31 7.7 S 32 43 17 23 1021.2 1020.6 0.0
 
Date/Time
EST
Temp
°C
App
Temp
°C
Dew
Point
Rel
Hum
%
Delta-T
°C
Wind Press
QNH
hPa
Press
MSL
hPa
Rain
since 9 am
mm
Dir
 
Spd
km/h
Gust
km/h
Spd
kts
Gust
kts
01/11:30pm 19.3 11.4 1.3 30 8.2 S 32 44 17 24 1021.2 - 0.0
01/11:00pm 19.6 13.7 1.6 30 8.2 S 22 33 12 18 1021.0 1020.4 0.0
01/10:30pm 20.0 14.1 1.4 29 8.5 S 22 28 12 15 1020.7 - 0.0
01/10:00pm 20.7 13.9 1.1 27 9.0 S 26 33 14 18 1020.4 1019.8 0.0
01/09:30pm 21.6 14.4 0.8 25 9.5 S 28 41 15 22 1020.1 - 0.0
01/09:00pm 22.0 15.8 -0.1 23 10.0 S 22 35 12 19 1019.8 1019.2 0.0
01/08:30pm 23.0 15.6 -0.5 21 10.6 S 28 39 15 21 1019.5 - 0.0
01/08:00pm 23.4 16.8 -3.0 17 11.4 S 22 30 12 16 1018.9 1018.4 0.0
01/07:30pm 24.0 17.2 -5.1 14 12.2 S 22 30 12 16 1018.1 - 0.0
01/07:00pm 24.9 17.8 -4.4 14 12.5 S 24 32 13 17 1017.6 1017.0 0.0
01/06:30pm 25.8 19.0 -4.7 13 13.1 S 22 30 12 16 1017.2 - 0.0
01/06:00pm 26.9 19.7 -4.9 12 13.7 SSW 24 33 13 18 1016.8 1016.2 0.0
01/05:30pm 28.1 20.5 -5.1 11 14.4 SSW 26 35 14 19 1016.5 - 0.0
01/05:00pm 29.0 21.9 -4.4 11 14.8 S 24 30 13 16 1016.1 1015.5 0.0
01/04:30pm 29.3 22.2 -4.2 11 14.9 S 24 32 13 17 1016.0 - 0.0
01/04:00pm 29.9 23.6 -3.7 11 15.1 SSW 20 28 11 15 1015.9 1015.3 0.0
01/03:30pm 29.7 24.4 -3.9 11 15.1 SE 15 24 8 13 1016.0 - 0.0
01/03:00pm 29.6 23.5 -3.9 11 15.0 SW 19 30 10 16 1016.1 1015.5 0.0
01/02:30pm 29.5 23.4 -4.0 11 15.0 SW 19 24 10 13 1016.4 - 0.0
01/02:00pm 29.6 23.3 -3.9 11 15.0 SSW 20 26 11 14 1016.8 1016.2 0.0
01/01:30pm 29.1 22.4 -4.3 11 14.8 SSE 22 37 12 20 1017.2 - 0.0
01/01:00pm 28.8 22.4 -4.6 11 14.7 S 20 33 11 18 1017.6 1017.0 0.0
01/12:30pm 28.8 21.0 -3.4 12 14.5 SSE 28 33 15 18 1018.0 - 0.0
01/12:00pm 28.3 20.9 -3.8 12 14.2 S 26 39 14 21 1018.5 1018.0 0.0
01/11:30am 27.9 21.6 -4.1 12 14.1 S 20 30 11 16 1018.8 - 0.0
01/11:00am 27.8 20.8 -3.1 13 13.8 S 24 35 13 19 1019.2 1018.6 0.0
01/10:30am 26.8 20.5 -3.9 13 13.5 S 20 32 11 17 1019.4 - 0.0
01/10:00am 24.8 19.3 -5.5 13 12.6 S 15 19 8 10 1019.6 1019.0 0.0
01/09:30am 22.9 18.1 -6.0 14 11.8 S 11 13 6 7 1019.4 - 0.0
01/09:00am 21.3 16.5 -6.3 15 11.0 SSE 11 17 6 9 1018.9 1018.5 0.0
01/08:30am 19.3 14.5 -5.6 18 9.9 S 11 17 6 9 1018.5 - 0.0
01/08:00am 16.3 12.4 -4.3 24 8.1 SSW 7 7 4 4 1018.1 1017.7 0.0
01/07:30am 15.0 10.2 -5.9 23 7.8 SSW 11 13 6 7 1017.7 - 0.0
01/07:00am 16.4 10.4 -6.6 20 8.6 SSW 17 17 9 9 1017.4 1017.0 0.0
01/06:30am 16.9 10.9 -6.8 19 8.9 SSW 17 17 9 9 1017.1 - 0.0
01/06:00am 17.2 11.2 -6.6 19 9.0 S 17 20 9 11 1016.8 1016.4 0.0
01/05:30am 17.2 11.6 -5.9 20 8.9 S 15 19 8 10 1016.6 - 0.0
01/05:00am 17.3 11.4 -5.8 20 8.9 S 17 20 9 11 1016.4 1016.0 0.0
01/04:30am 17.4 11.6 -5.1 21 8.8 S 17 20 9 11 1016.3 - 0.0
01/04:00am 17.5 11.7 -4.4 22 8.7 S 17 19 9 10 1016.2 1015.8 0.0
01/03:30am 18.0 12.0 -3.4 23 8.7 S 19 20 10 11 1016.2 - 0.0
01/03:00am 17.9 12.8 -1.9 26 8.3 S 15 19 8 10 1016.3 1015.9 0.0
01/02:30am 17.7 12.8 -0.5 29 7.9 SSW 15 17 8 9 1016.4 - 0.0
01/02:00am 16.5 12.1 0.2 33 7.1 SSW 13 13 7 7 1016.4 1016.0 0.0
01/01:30am 16.7 12.2 -0.1 32 7.3 SSW 13 17 7 9 1016.6 - 0.0
01/01:00am 16.9 13.0 1.0 34 7.0 SSW 11 11 6 6 1016.6 1016.2 0.0
01/12:30am 16.2 12.2 0.3 34 6.9 SW 11 13 6 7 1016.6 - 0.0
01/12:00am 17.2 13.2 0.8 33 7.2 S 11 13 6 7 1016.4 1016.0 0.0
 
Date/Time
EST
Temp
°C
App
Temp
°C
Dew
Point
Rel
Hum
%
Delta-T
°C
Wind Press
QNH
hPa
Press
MSL
hPa
Rain
since 9 am
mm
Dir
 
Spd
km/h
Gust
km/h
Spd
kts
Gust
kts
31/11:30pm 18.4 14.2 1.4 32 7.7 S 13 13 7 7 1016.4 - 0.0
31/11:00pm 19.6 16.4 2.9 33 7.9 S 9 11 5 6 1016.5 1016.1 0.0
31/10:30pm 18.9 15.2 2.3 33 7.7 S 11 13 6 7 1016.4 - 0.0
31/10:00pm 19.2 15.5 2.1 32 7.9 S 11 13 6 7 1016.4 1016.0 0.0
31/09:30pm 19.7 16.6 3.4 34 7.8 SSW 9 11 5 6 1016.2 - 0.0
31/09:00pm 20.3 18.8 3.1 32 8.2 CALM 0 0 0 0 1015.8 1015.4 0.0
31/08:30pm 21.2 18.2 1.0 26 9.3 S 6 6 3 3 1015.6 - 0.0
31/08:00pm 22.2 19.1 1.3 25 9.7 S 7 9 4 5 1015.4 1015.0 0.0
31/07:30pm 24.8 22.0 2.9 24 10.7 S 7 9 4 5 1015.0 - 0.0
31/07:00pm 25.0 22.1 2.4 23 11.0 S 7 9 4 5 1014.6 1014.1 0.0
31/06:30pm 26.5 23.2 2.4 21 11.8 S 9 9 5 5 1014.3 - 0.0
31/06:00pm 28.4 24.7 2.6 19 12.9 SSW 11 13 6 7 1014.2 1013.7 0.0
31/05:30pm 29.6 26.4 2.8 18 13.5 SSW 9 15 5 8 1014.3 - 0.0
31/05:00pm 29.8 24.9 2.1 17 13.8 SW 17 20 9 11 1014.2 1013.7 0.0
31/04:30pm 29.8 26.2 2.9 18 13.6 SSE 11 17 6 9 1014.3 - 0.0
31/04:00pm 30.4 25.7 3.4 18 13.8 WSW 17 24 9 13 1014.4 1013.9 0.0
31/03:30pm 29.7 26.8 4.4 20 13.1 ESE 9 15 5 8 1014.6 - 0.0
31/03:00pm 29.5 26.9 4.2 20 13.0 SE 7 13 4 7 1014.9 1014.5 0.0
31/02:30pm 29.5 26.9 4.2 20 13.1 N 7 19 4 10 1015.3 - 0.0
31/02:00pm 29.0 24.9 4.5 21 12.7 S 15 20 8 11 1015.6 1015.2 0.0
31/01:30pm 28.5 25.2 4.7 22 12.3 SSE 11 19 6 10 1016.0 - 0.0
31/01:00pm 27.9 24.8 5.5 24 11.7 SSE 11 20 6 11 1016.4 1016.0 0.0
31/12:30pm 27.8 24.9 6.6 26 11.3 ENE 11 19 6 10 1017.0 - 0.0
31/12:00pm 27.2 24.3 6.6 27 10.9 E 11 20 6 11 1017.6 1017.2 0.0
31/11:30am 26.0 23.0 6.1 28 10.4 ESE 11 17 6 9 1018.0 - 0.0
31/11:00am 25.4 22.3 5.6 28 10.2 E 11 17 6 9 1018.4 1018.0 0.0
31/10:30am 24.7 21.5 5.0 28 10.0 ESE 11 20 6 11 1018.5 - 0.0
31/10:00am 24.0 21.0 5.8 31 9.3 E 11 17 6 9 1018.7 1018.3 0.0
31/09:30am 21.8 17.8 0.4 24 9.8 S 11 15 6 8 1018.8 - 0.0
31/09:00am 20.0 16.0 0.5 27 8.8 S 11 13 6 7 1018.8 1018.4 0.0
31/08:30am 17.6 14.3 0.3 31 7.6 S 7 9 4 5 1018.7 - 0.0
31/08:00am 15.1 11.8 0.2 36 6.4 S 7 9 4 5 1018.4 1018.0 0.0
31/07:30am 13.4 10.2 -0.3 39 5.7 S 6 9 3 5 1018.0 - 0.0
31/07:00am 13.2 9.2 0.3 41 5.4 S 11 13 6 7 1017.5 1017.1 0.0
31/06:30am 13.4 9.4 0.4 41 5.5 S 11 13 6 7 1017.2 - 0.0
31/06:00am 13.0 9.3 0.1 41 5.4 S 9 11 5 6 1017.0 1016.6 0.0
31/05:30am 14.0 10.4 0.6 40 5.7 S 9 13 5 7 1016.9 - 0.0
31/05:00am 13.9 9.9 0.2 39 5.8 S 11 11 6 6 1016.8 1016.4 0.0
31/04:30am 13.6 9.8 -0.4 38 5.8 S 9 11 5 6 1016.7 - 0.0
31/04:00am 14.2 10.5 0.1 38 6.0 S 9 11 5 6 1016.8 1016.4 0.0
31/03:30am 15.0 10.6 0.4 37 6.3 S 13 13 7 7 1016.8 - 0.0
31/03:00am 15.6 12.6 1.0 37 6.4 SSW 6 9 3 5 1016.9 1016.5 0.0
31/02:30am 15.3 11.6 -0.1 35 6.6 S 9 9 5 5 1016.9 - 0.0
31/02:00am 16.0 12.3 0.2 34 6.8 S 9 11 5 6 1016.9 1016.5 0.0
31/01:30am 16.8 12.8 0.5 33 7.1 S 11 13 6 7 1017.1 - 0.0
31/01:00am 16.0 12.2 -0.7 32 7.1 S 9 11 5 6 1017.0 1016.6 0.0
31/12:30am 17.0 13.0 0.2 32 7.3 S 11 13 6 7 1017.1 - 0.0
31/12:00am 18.0 14.7 0.2 30 7.8 SSE 7 9 4 5 1017.2 1016.8 0.0
 
Date/Time
EST
Temp
°C
App
Temp
°C
Dew
Point
Rel
Hum
%
Delta-T
°C
Wind Press
QNH
hPa
Press
MSL
hPa
Rain
since 9 am
mm
Dir
 
Spd
km/h
Gust
km/h
Spd
kts
Gust
kts
30/11:30pm 20.1 16.5 0.5 27 8.8 SE 9 13 5 7 1017.4 - 0.0
30/11:00pm 20.9 16.9 0.2 25 9.3 ESE 11 11 6 6 1017.4 1017.0 0.0
30/10:30pm 21.4 17.4 0.6 25 9.5 ESE 11 13 6 7 1017.6 - 0.0
30/10:00pm 21.5 17.2 0.7 25 9.5 ESE 13 13 7 7 1017.8 1017.4 0.0
30/09:30pm 21.2 17.1 -0.1 24 9.6 ESE 11 11 6 6 1017.8 - 0.0
30/09:00pm 21.7 17.7 0.3 24 9.7 ESE 11 13 6 7 1017.8 1017.4 0.0
30/08:30pm 21.9 17.8 -0.1 23 9.9 ESE 11 13 6 7 1017.4 - 0.0
30/08:00pm 23.7 19.7 0.7 22 10.7 SE 11 13 6 7 1017.2 1016.8 0.0
30/07:30pm 24.2 19.8 0.5 21 11.0 ESE 13 13 7 7 1016.9 - 0.0
30/07:00pm 24.9 20.9 0.4 20 11.4 ESE 11 13 6 7 1016.6 1016.2 0.0

Other Formats:

Comma delimited format used in spreadsheet applications
http://www.bom.gov.au/fwo/IDQ60801/IDQ60801.94335.axf

JavaScript Object Notation format (JSON) in row-major order
http://www.bom.gov.au/fwo/IDQ60801/IDQ60801.94335.json